createdAt,value
2022-08-31T00:00:10.704Z,11.80
2022-08-31T00:02:57.278Z,11.80
2022-08-31T00:05:24.827Z,11.90
2022-08-31T00:07:52.610Z,11.90
2022-08-31T00:10:32.901Z,11.90
2022-08-31T00:13:06.836Z,12.00
2022-08-31T00:15:35.299Z,12.00
2022-08-31T00:18:02.741Z,12.10
2022-08-31T00:20:33.226Z,12.10
2022-08-31T00:23:05.193Z,12.00
2022-08-31T00:25:33.857Z,12.00
2022-08-31T00:28:00.833Z,11.90
2022-08-31T00:30:29.157Z,11.90
2022-08-31T00:32:58.119Z,11.90
2022-08-31T00:35:27.515Z,11.90
2022-08-31T00:37:54.792Z,12.00
2022-08-31T00:40:22.327Z,12.00
2022-08-31T00:42:49.299Z,12.00
2022-08-31T00:45:16.380Z,12.00
2022-08-31T00:47:43.265Z,12.00
2022-08-31T00:50:13.265Z,12.00
2022-08-31T00:52:43.010Z,12.00
2022-08-31T00:55:15.816Z,12.00
2022-08-31T00:57:45.971Z,12.00
2022-08-31T01:00:18.026Z,12.00
2022-08-31T01:02:45.403Z,12.10
2022-08-31T01:05:13.706Z,12.10
2022-08-31T01:07:41.338Z,12.10
2022-08-31T01:10:10.093Z,12.20
2022-08-31T01:12:37.442Z,12.10
2022-08-31T01:15:07.488Z,12.20
2022-08-31T01:17:36.392Z,12.30
2022-08-31T01:20:29.973Z,12.30
2022-08-31T01:23:09.498Z,12.20
2022-08-31T01:25:38.912Z,12.20
2022-08-31T01:28:08.269Z,12.10
2022-08-31T01:30:36.128Z,12.00
2022-08-31T01:33:03.614Z,12.00
2022-08-31T01:35:31.259Z,11.90
2022-08-31T01:37:58.951Z,11.90
2022-08-31T01:40:34.812Z,11.90
2022-08-31T01:43:02.069Z,11.90
2022-08-31T01:45:29.536Z,11.90
2022-08-31T01:47:58.583Z,11.90
2022-08-31T01:50:25.556Z,12.00
2022-08-31T01:52:52.443Z,11.90
2022-08-31T01:55:19.521Z,11.90
2022-08-31T01:57:46.910Z,11.90
2022-08-31T02:00:32.932Z,11.80
2022-08-31T02:03:01.659Z,11.80
2022-08-31T02:05:29.408Z,11.80
2022-08-31T02:07:57.507Z,11.80
2022-08-31T02:10:24.982Z,11.80
2022-08-31T02:12:52.282Z,11.80
2022-08-31T02:15:29.455Z,11.80
2022-08-31T02:17:56.441Z,11.80
2022-08-31T02:20:24.104Z,11.70
2022-08-31T02:22:51.191Z,11.80
2022-08-31T02:25:18.487Z,11.80
2022-08-31T02:27:45.980Z,11.90
2022-08-31T02:30:20.626Z,11.90
2022-08-31T02:32:47.554Z,11.90
2022-08-31T02:35:14.484Z,11.90
2022-08-31T02:37:41.769Z,11.90
2022-08-31T02:40:12.387Z,11.80
2022-08-31T02:42:52.440Z,11.80
2022-08-31T02:45:23.874Z,11.80
2022-08-31T02:47:51.681Z,11.80
2022-08-31T02:50:28.602Z,11.80
2022-08-31T02:52:56.861Z,11.80
2022-08-31T02:55:25.908Z,11.80
2022-08-31T02:57:53.605Z,11.80
2022-08-31T03:00:23.156Z,11.80
2022-08-31T03:02:50.892Z,11.80
2022-08-31T03:05:18.150Z,11.80
2022-08-31T03:07:45.471Z,11.80
2022-08-31T03:10:14.771Z,11.80
2022-08-31T03:12:42.490Z,11.80
2022-08-31T03:15:10.583Z,11.80
2022-08-31T03:17:37.768Z,11.70
2022-08-31T03:20:06.581Z,11.70
2022-08-31T03:22:34.354Z,11.70
2022-08-31T03:25:02.046Z,11.80
2022-08-31T03:27:30.295Z,11.80
2022-08-31T03:29:58.190Z,11.80
2022-08-31T03:32:28.124Z,11.80
2022-08-31T03:34:56.902Z,11.80
2022-08-31T03:37:24.512Z,11.80
2022-08-31T03:39:53.799Z,11.80
2022-08-31T03:42:21.275Z,11.80
2022-08-31T03:44:48.507Z,11.80
2022-08-31T03:47:28.298Z,11.80
2022-08-31T03:49:56.050Z,11.80
2022-08-31T03:52:25.746Z,11.80
2022-08-31T03:55:10.876Z,11.80
2022-08-31T03:57:39.278Z,11.80
2022-08-31T04:00:07.923Z,11.80
2022-08-31T04:02:41.282Z,11.80
2022-08-31T04:05:31.422Z,11.80
2022-08-31T04:08:18.774Z,11.80
2022-08-31T04:10:48.740Z,11.80
2022-08-31T04:13:34.701Z,11.80
2022-08-31T04:16:15.438Z,11.80
2022-08-31T04:19:07.982Z,11.80
2022-08-31T04:21:41.246Z,11.80
2022-08-31T04:24:12.138Z,11.80
2022-08-31T04:26:40.986Z,11.80
2022-08-31T04:29:13.141Z,11.80
2022-08-31T04:31:41.572Z,11.80
2022-08-31T04:34:08.685Z,11.80
2022-08-31T04:36:37.286Z,11.90
2022-08-31T04:39:05.680Z,11.90
2022-08-31T04:41:35.604Z,11.90
2022-08-31T04:44:04.085Z,11.90
2022-08-31T04:46:32.644Z,11.90
2022-08-31T04:48:59.585Z,11.90
2022-08-31T04:51:31.138Z,11.90
2022-08-31T04:53:58.905Z,11.90
2022-08-31T04:56:30.388Z,11.90
2022-08-31T04:59:02.942Z,11.90
2022-08-31T05:01:38.642Z,12.00
2022-08-31T05:04:16.243Z,12.00
2022-08-31T05:06:45.081Z,12.00
2022-08-31T05:09:15.748Z,12.10
2022-08-31T05:11:45.896Z,12.10
2022-08-31T05:14:13.067Z,12.10
2022-08-31T05:16:44.253Z,12.20
2022-08-31T05:19:11.209Z,12.20
2022-08-31T05:21:41.034Z,12.20
2022-08-31T05:24:12.656Z,12.20
2022-08-31T05:26:48.137Z,12.30
2022-08-31T05:29:19.721Z,12.30
2022-08-31T05:31:52.010Z,12.40
2022-08-31T05:34:21.376Z,12.40
2022-08-31T05:36:54.440Z,12.50
2022-08-31T05:39:21.528Z,12.60
2022-08-31T05:41:48.689Z,12.60
2022-08-31T05:44:19.927Z,12.70
2022-08-31T05:46:52.216Z,12.70
2022-08-31T05:49:24.397Z,12.80
2022-08-31T05:51:57.175Z,12.80
2022-08-31T05:54:24.180Z,12.80
2022-08-31T05:56:51.056Z,12.80
2022-08-31T05:59:17.927Z,12.70
2022-08-31T06:01:45.493Z,12.70
2022-08-31T06:04:12.652Z,12.70
2022-08-31T06:06:39.675Z,12.80
2022-08-31T06:09:08.229Z,12.80
2022-08-31T06:11:39.006Z,12.90
2022-08-31T06:14:06.120Z,12.90
2022-08-31T06:16:33.811Z,12.90
2022-08-31T06:19:03.462Z,12.90
2022-08-31T06:21:38.367Z,13.00
2022-08-31T06:24:06.774Z,13.00
2022-08-31T06:26:35.715Z,13.10
2022-08-31T06:29:07.169Z,13.10
2022-08-31T06:31:39.124Z,13.20
2022-08-31T06:34:08.289Z,13.20
2022-08-31T06:37:01.398Z,13.20
2022-08-31T06:39:33.494Z,13.20
2022-08-31T06:42:23.441Z,13.30
2022-08-31T06:45:02.666Z,13.40
2022-08-31T06:47:40.667Z,13.40
2022-08-31T06:50:09.119Z,13.50
2022-08-31T06:52:38.952Z,13.50
2022-08-31T06:55:22.638Z,13.50
2022-08-31T06:58:07.968Z,13.60
2022-08-31T07:00:53.971Z,13.60
2022-08-31T07:03:24.419Z,13.70
2022-08-31T07:05:53.353Z,13.80
2022-08-31T07:08:21.576Z,13.80
2022-08-31T07:10:48.697Z,13.90
2022-08-31T07:13:15.772Z,13.90
2022-08-31T07:15:42.725Z,13.90
2022-08-31T07:18:10.606Z,13.90
2022-08-31T07:20:37.996Z,13.90
2022-08-31T07:23:08.320Z,14.00
2022-08-31T07:25:39.723Z,14.00
2022-08-31T07:28:06.880Z,14.00
2022-08-31T07:30:38.355Z,14.00
2022-08-31T07:33:06.791Z,14.00
2022-08-31T07:35:35.843Z,14.00
2022-08-31T07:38:44.998Z,14.10
2022-08-31T07:41:31.093Z,14.10
2022-08-31T07:43:59.648Z,14.10
2022-08-31T07:46:31.509Z,14.10
2022-08-31T07:48:59.761Z,14.10
2022-08-31T07:51:52.997Z,14.10
2022-08-31T07:54:44.493Z,14.10
2022-08-31T07:57:25.822Z,14.20
2022-08-31T07:59:56.266Z,14.20
2022-08-31T08:02:24.109Z,14.30
2022-08-31T08:04:53.421Z,14.30
2022-08-31T08:07:54.903Z,14.30
2022-08-31T08:10:42.820Z,14.30
2022-08-31T08:13:28.310Z,14.30
2022-08-31T08:16:06.331Z,14.40
2022-08-31T08:18:56.408Z,14.40
2022-08-31T08:21:28.501Z,14.50
2022-08-31T08:23:55.971Z,14.50
2022-08-31T08:26:49.858Z,14.50
2022-08-31T08:29:33.573Z,14.60
2022-08-31T08:32:02.244Z,14.60
2022-08-31T08:34:32.493Z,14.70
2022-08-31T08:37:02.009Z,14.70
2022-08-31T08:39:29.611Z,14.70
2022-08-31T08:42:21.681Z,14.80
2022-08-31T08:44:48.777Z,14.80
2022-08-31T08:47:23.918Z,14.90
2022-08-31T08:50:03.757Z,14.90
2022-08-31T08:52:41.441Z,14.90
2022-08-31T08:55:12.872Z,15.00
2022-08-31T08:57:42.717Z,15.00
2022-08-31T09:00:20.298Z,15.10
2022-08-31T09:03:04.925Z,15.20
2022-08-31T09:06:14.188Z,15.20
2022-08-31T09:09:10.010Z,15.20
2022-08-31T09:12:12.549Z,15.20
2022-08-31T09:14:54.133Z,15.20
2022-08-31T09:17:49.415Z,15.20
2022-08-31T09:20:17.742Z,15.20
2022-08-31T09:22:53.072Z,15.20
2022-08-31T09:25:32.711Z,15.10
2022-08-31T09:28:17.054Z,15.00
2022-08-31T09:30:43.893Z,15.10
2022-08-31T09:33:17.524Z,15.10
2022-08-31T09:35:45.338Z,15.10
2022-08-31T09:38:25.834Z,15.10
2022-08-31T09:40:53.149Z,15.10
2022-08-31T09:43:24.921Z,15.10
2022-08-31T09:46:06.156Z,15.20
2022-08-31T09:48:43.408Z,15.20
2022-08-31T09:51:20.665Z,15.10
2022-08-31T09:54:06.380Z,14.90
2022-08-31T09:56:55.259Z,15.00
2022-08-31T09:59:44.461Z,14.90
2022-08-31T10:02:24.513Z,14.90
2022-08-31T10:04:54.614Z,15.00
2022-08-31T10:07:33.717Z,15.10
2022-08-31T10:10:28.218Z,15.10
2022-08-31T10:13:15.510Z,15.20
2022-08-31T10:15:48.541Z,15.20
2022-08-31T10:18:39.577Z,15.20
2022-08-31T10:21:13.421Z,15.20
2022-08-31T10:23:54.554Z,15.30
2022-08-31T10:26:34.057Z,15.30
2022-08-31T10:29:06.230Z,15.40
2022-08-31T10:31:45.291Z,15.40
2022-08-31T10:34:54.773Z,15.50
2022-08-31T10:37:31.618Z,15.60
2022-08-31T10:40:06.841Z,15.70
2022-08-31T10:42:46.785Z,15.70
2022-08-31T10:45:24.729Z,15.80
2022-08-31T10:47:55.929Z,15.80
2022-08-31T10:50:52.583Z,15.90
2022-08-31T10:53:34.946Z,15.90
2022-08-31T10:56:32.386Z,15.90
2022-08-31T10:59:11.365Z,16.00
2022-08-31T11:02:05.554Z,16.10
2022-08-31T11:05:20.497Z,16.10
2022-08-31T11:08:12.177Z,16.10
2022-08-31T11:10:54.219Z,16.10
2022-08-31T11:13:31.456Z,16.00
2022-08-31T11:16:04.414Z,16.10
2022-08-31T11:18:40.364Z,16.20
2022-08-31T11:21:46.020Z,16.20
2022-08-31T11:24:34.973Z,16.20
2022-08-31T11:27:23.637Z,16.20
2022-08-31T11:29:56.751Z,16.30
2022-08-31T11:32:37.484Z,16.20
2022-08-31T11:35:10.390Z,16.30
2022-08-31T11:37:50.925Z,16.20
2022-08-31T11:40:44.988Z,16.40
2022-08-31T11:43:16.063Z,16.40
2022-08-31T11:45:43.304Z,16.40
2022-08-31T11:48:51.177Z,16.30
2022-08-31T11:51:55.652Z,16.30
2022-08-31T11:54:26.989Z,16.20
2022-08-31T11:56:57.056Z,16.20
2022-08-31T11:59:32.803Z,16.30
2022-08-31T12:02:19.635Z,16.40
2022-08-31T12:04:47.560Z,16.30
2022-08-31T12:07:30.102Z,16.10
2022-08-31T12:10:15.992Z,16.10
2022-08-31T12:12:49.695Z,16.20
2022-08-31T12:15:20.651Z,16.30
2022-08-31T12:18:10.794Z,16.50
2022-08-31T12:21:08.781Z,16.60
2022-08-31T12:23:44.388Z,16.40
2022-08-31T12:26:30.102Z,16.40
2022-08-31T12:29:18.354Z,16.30
2022-08-31T12:32:11.032Z,16.40
2022-08-31T12:34:46.350Z,16.50
2022-08-31T12:37:37.574Z,16.50
2022-08-31T12:40:18.246Z,16.80
2022-08-31T12:43:09.124Z,16.90
2022-08-31T12:45:54.882Z,17.00
2022-08-31T12:48:45.506Z,16.90
2022-08-31T12:51:18.503Z,17.10
2022-08-31T12:54:13.120Z,17.00
2022-08-31T12:56:59.750Z,17.00
2022-08-31T13:00:01.297Z,16.80
2022-08-31T13:02:31.872Z,16.70
2022-08-31T13:05:00.591Z,16.70
2022-08-31T13:07:33.478Z,16.70
2022-08-31T13:10:08.606Z,16.70
2022-08-31T13:12:37.060Z,16.50
2022-08-31T13:15:08.996Z,16.70
2022-08-31T13:17:39.602Z,16.90
2022-08-31T13:20:07.593Z,16.70
2022-08-31T13:22:41.367Z,16.80
2022-08-31T13:25:16.687Z,16.80
2022-08-31T13:27:52.115Z,16.90
2022-08-31T13:30:22.388Z,17.10
2022-08-31T13:32:54.900Z,17.30
2022-08-31T13:35:25.043Z,17.40
2022-08-31T13:38:05.855Z,17.30
2022-08-31T13:40:37.438Z,17.30
2022-08-31T13:43:10.289Z,17.30
2022-08-31T13:45:58.111Z,17.40
2022-08-31T13:48:40.641Z,17.60
2022-08-31T13:51:18.853Z,17.70
2022-08-31T13:53:54.928Z,17.70
2022-08-31T13:56:49.418Z,17.80
2022-08-31T13:59:24.718Z,17.80
2022-08-31T14:02:22.221Z,17.90
2022-08-31T14:04:54.519Z,17.80
2022-08-31T14:07:31.520Z,17.70
2022-08-31T14:10:08.802Z,17.80
2022-08-31T14:12:46.067Z,17.90
2022-08-31T14:15:17.936Z,18.00
2022-08-31T14:20:49.634Z,18.10
2022-08-31T14:23:31.472Z,18.00
2022-08-31T14:26:02.122Z,17.90
2022-08-31T14:28:40.589Z,17.90
2022-08-31T14:31:24.427Z,18.00
2022-08-31T14:34:22.584Z,18.10
2022-08-31T14:37:06.511Z,18.10
2022-08-31T14:39:43.819Z,18.20
2022-08-31T14:42:20.273Z,18.30
2022-08-31T14:44:56.821Z,18.50
2022-08-31T14:47:27.732Z,18.60
2022-08-31T14:50:01.214Z,18.60
2022-08-31T14:52:28.520Z,18.70
2022-08-31T14:55:02.677Z,18.90
2022-08-31T14:57:33.078Z,18.90
2022-08-31T15:00:01.099Z,18.40
2022-08-31T15:02:33.417Z,18.00
2022-08-31T15:05:04.621Z,17.70
2022-08-31T15:07:34.809Z,17.30
2022-08-31T15:10:03.543Z,17.00
2022-08-31T15:12:30.696Z,16.70
2022-08-31T15:15:00.344Z,16.60
2022-08-31T15:17:29.094Z,16.60
2022-08-31T15:19:57.442Z,16.80
2022-08-31T15:22:28.236Z,17.20
2022-08-31T15:24:56.251Z,17.50
2022-08-31T15:27:25.487Z,17.60
2022-08-31T15:29:58.988Z,17.40
2022-08-31T15:32:25.994Z,17.20
2022-08-31T15:34:58.613Z,17.20
2022-08-31T15:37:31.781Z,17.00
2022-08-31T15:40:01.076Z,16.90
2022-08-31T15:42:29.484Z,16.70
2022-08-31T15:44:56.993Z,16.70
2022-08-31T15:47:49.715Z,16.60
2022-08-31T15:50:19.007Z,16.60
2022-08-31T15:52:51.226Z,16.80
2022-08-31T15:55:23.262Z,17.00
2022-08-31T15:57:54.115Z,17.20
2022-08-31T16:00:26.049Z,17.50
2022-08-31T16:02:57.533Z,17.80
2022-08-31T16:05:28.269Z,18.00
2022-08-31T16:07:55.690Z,18.10
2022-08-31T16:10:23.431Z,18.40
2022-08-31T16:12:52.015Z,17.80
2022-08-31T16:15:22.257Z,17.50
2022-08-31T16:17:51.556Z,17.00
2022-08-31T16:20:18.465Z,16.30
2022-08-31T16:22:45.488Z,15.90
2022-08-31T16:25:14.098Z,15.40
2022-08-31T16:27:41.515Z,15.10
2022-08-31T16:30:10.650Z,15.10
2022-08-31T16:32:37.534Z,15.40
2022-08-31T16:35:05.658Z,15.60
2022-08-31T16:37:33.345Z,15.40
2022-08-31T16:40:00.394Z,15.20
2022-08-31T16:42:27.978Z,15.10
2022-08-31T16:44:59.844Z,14.80
2022-08-31T16:47:29.229Z,14.70
2022-08-31T16:49:58.950Z,14.70
2022-08-31T16:52:28.603Z,14.60
2022-08-31T16:54:59.074Z,14.50
2022-08-31T16:57:27.298Z,14.40
2022-08-31T16:59:56.640Z,14.30
2022-08-31T17:02:24.733Z,14.20
2022-08-31T17:04:53.481Z,14.20
2022-08-31T17:07:23.131Z,14.10
2022-08-31T17:09:50.621Z,14.10
2022-08-31T17:12:21.694Z,14.00
2022-08-31T17:14:52.362Z,14.00
2022-08-31T17:17:25.542Z,13.90
2022-08-31T17:19:53.387Z,13.90
2022-08-31T17:22:29.990Z,13.80
2022-08-31T17:25:02.904Z,13.70
2022-08-31T17:27:32.215Z,13.70
2022-08-31T17:30:01.004Z,13.60
2022-08-31T17:32:30.028Z,13.40
2022-08-31T17:34:57.062Z,13.40
2022-08-31T17:37:32.622Z,13.30
2022-08-31T17:40:00.454Z,13.20
2022-08-31T17:42:28.454Z,13.10
2022-08-31T17:44:56.744Z,13.00
2022-08-31T17:47:25.782Z,12.90
2022-08-31T17:49:54.090Z,12.90
2022-08-31T17:52:23.116Z,12.90
2022-08-31T17:54:51.307Z,12.80
2022-08-31T17:57:22.402Z,12.80
2022-08-31T17:59:49.520Z,12.80
2022-08-31T18:02:32.516Z,12.80
2022-08-31T18:05:01.207Z,12.80
2022-08-31T18:07:28.727Z,12.80
2022-08-31T18:09:55.792Z,12.70
2022-08-31T18:12:25.476Z,12.70
2022-08-31T18:14:53.742Z,12.60
2022-08-31T18:17:22.423Z,12.60
2022-08-31T18:19:49.567Z,12.60
2022-08-31T18:22:18.160Z,12.60
2022-08-31T18:24:45.112Z,12.50
2022-08-31T18:27:15.063Z,12.50
2022-08-31T18:29:43.168Z,12.40
2022-08-31T18:32:10.862Z,12.40
2022-08-31T18:34:41.004Z,12.30
2022-08-31T18:37:09.838Z,12.30
2022-08-31T18:39:58.960Z,12.20
2022-08-31T18:42:46.450Z,12.20
2022-08-31T18:45:18.281Z,12.10
2022-08-31T18:50:44.453Z,12.00
2022-08-31T18:53:15.586Z,11.90
2022-08-31T18:55:43.993Z,11.90
2022-08-31T18:58:11.119Z,11.80
2022-08-31T19:00:40.122Z,11.80
2022-08-31T19:03:07.396Z,11.80
2022-08-31T19:05:38.287Z,11.80
2022-08-31T19:08:05.472Z,11.70
2022-08-31T19:10:32.318Z,11.70
2022-08-31T19:13:01.139Z,11.70
2022-08-31T19:15:31.540Z,11.70
2022-08-31T19:18:03.491Z,11.70
2022-08-31T19:20:30.454Z,11.60
2022-08-31T19:22:57.469Z,11.60
2022-08-31T19:25:24.627Z,11.60
2022-08-31T19:27:52.607Z,11.60
2022-08-31T19:30:25.746Z,11.60
2022-08-31T19:32:56.214Z,11.60
2022-08-31T19:35:25.844Z,11.60
2022-08-31T19:37:53.717Z,11.60
2022-08-31T19:40:21.316Z,11.60
2022-08-31T19:45:45.176Z,11.70
2022-08-31T19:48:13.350Z,11.70
2022-08-31T19:50:42.512Z,11.70
2022-08-31T19:53:12.583Z,11.70
2022-08-31T19:55:51.328Z,11.80
2022-08-31T19:58:22.073Z,11.80
2022-08-31T20:00:49.894Z,11.80
2022-08-31T20:03:19.225Z,11.80
2022-08-31T20:05:47.021Z,11.90
2022-08-31T20:08:13.979Z,12.00
2022-08-31T20:10:43.271Z,12.00
2022-08-31T20:13:12.402Z,12.10
2022-08-31T20:15:44.539Z,12.10
2022-08-31T20:18:12.685Z,12.20
2022-08-31T20:20:48.353Z,12.30
2022-08-31T20:23:17.524Z,12.30
2022-08-31T20:25:46.839Z,12.30
2022-08-31T20:28:15.048Z,12.30
2022-08-31T20:30:43.601Z,12.30
2022-08-31T20:33:11.609Z,12.30
2022-08-31T20:35:47.417Z,12.30
2022-08-31T20:38:16.242Z,12.40
2022-08-31T20:40:44.537Z,12.40
2022-08-31T20:43:12.693Z,12.40
2022-08-31T20:45:41.551Z,12.30
2022-08-31T20:48:27.531Z,12.30
2022-08-31T20:50:55.997Z,12.30
2022-08-31T20:53:39.031Z,12.30
2022-08-31T20:56:17.704Z,12.30
2022-08-31T20:58:46.285Z,12.30
2022-08-31T21:01:16.061Z,12.30
2022-08-31T21:03:43.269Z,12.30
2022-08-31T21:06:13.845Z,12.40
2022-08-31T21:08:42.596Z,12.40
2022-08-31T21:11:17.848Z,12.40
2022-08-31T21:13:46.762Z,12.40
2022-08-31T21:16:19.480Z,12.40
2022-08-31T21:18:48.805Z,12.40
2022-08-31T21:21:17.447Z,12.40
2022-08-31T21:23:48.086Z,12.40
2022-08-31T21:26:25.941Z,12.40
2022-08-31T21:28:55.158Z,12.40
2022-08-31T21:31:28.656Z,12.40
2022-08-31T21:34:01.180Z,12.40
2022-08-31T21:36:32.809Z,12.30
2022-08-31T21:39:01.666Z,12.40
2022-08-31T21:41:29.565Z,12.40
2022-08-31T21:43:57.566Z,12.40
2022-08-31T21:46:27.298Z,12.40
2022-08-31T21:48:56.265Z,12.40
2022-08-31T21:51:30.743Z,12.40
2022-08-31T21:54:00.567Z,12.40
2022-08-31T21:56:31.400Z,12.40
2022-08-31T21:58:59.514Z,12.40
2022-08-31T22:01:29.403Z,12.40
2022-08-31T22:03:59.297Z,12.40
2022-08-31T22:06:34.181Z,12.30
2022-08-31T22:09:06.563Z,12.30
2022-08-31T22:11:38.458Z,12.30
2022-08-31T22:14:07.880Z,12.30
2022-08-31T22:16:37.448Z,12.30
2022-08-31T22:19:12.096Z,12.20
2022-08-31T22:21:42.551Z,12.20
2022-08-31T22:24:10.326Z,12.30
2022-08-31T22:26:42.040Z,12.20
2022-08-31T22:29:11.604Z,12.20
2022-08-31T22:31:42.092Z,12.20
2022-08-31T22:34:09.742Z,12.20
2022-08-31T22:36:37.552Z,12.20
2022-08-31T22:39:11.304Z,12.20
2022-08-31T22:41:40.630Z,12.20
2022-08-31T22:44:10.524Z,12.20
2022-08-31T22:46:39.701Z,12.20
2022-08-31T22:49:07.769Z,12.10
2022-08-31T22:51:36.552Z,12.10
2022-08-31T22:54:04.462Z,12.10
2022-08-31T22:56:34.538Z,12.10
2022-08-31T22:59:06.526Z,12.10
2022-08-31T23:01:37.842Z,12.10
2022-08-31T23:04:07.551Z,12.10
2022-08-31T23:06:36.831Z,12.10
2022-08-31T23:09:07.570Z,12.10
2022-08-31T23:11:34.867Z,12.10
2022-08-31T23:14:07.116Z,12.10
2022-08-31T23:16:38.325Z,12.10
2022-08-31T23:19:18.288Z,12.10
2022-08-31T23:21:55.052Z,12.10
2022-08-31T23:24:28.709Z,12.20
2022-08-31T23:27:04.327Z,12.20
2022-08-31T23:29:47.876Z,12.10
2022-08-31T23:32:18.724Z,12.20
2022-08-31T23:34:49.215Z,12.10
2022-08-31T23:37:17.814Z,12.10
2022-08-31T23:39:46.231Z,12.10
2022-08-31T23:42:14.949Z,12.10
2022-08-31T23:44:43.845Z,12.10
2022-08-31T23:47:16.983Z,12.10
2022-08-31T23:49:45.611Z,12.10
2022-08-31T23:52:18.629Z,12.10
2022-08-31T23:54:47.782Z,12.10
2022-08-31T23:57:32.292Z,12.10
